sensor_id;sensor_type;location;lat;lon;timestamp;pressure;altitude;pressure_sealevel;temperature;humidity
70103;BME280;57470;50.034;15.256;2024-01-15T00:00:38;97742.53;;;1.32;84.73
70103;BME280;57470;50.034;15.256;2024-01-15T00:03:04;97736.53;;;1.30;84.35
70103;BME280;57470;50.034;15.256;2024-01-15T00:05:29;97742.19;;;1.52;84.34
70103;BME280;57470;50.034;15.256;2024-01-15T00:07:55;97729.69;;;1.28;84.45
70103;BME280;57470;50.034;15.256;2024-01-15T00:10:20;97723.50;;;1.59;84.59
70103;BME280;57470;50.034;15.256;2024-01-15T00:12:45;97707.75;;;1.30;84.49
70103;BME280;57470;50.034;15.256;2024-01-15T00:15:11;97699.13;;;1.28;84.87
70103;BME280;57470;50.034;15.256;2024-01-15T00:17:36;97698.44;;;1.10;84.48
70103;BME280;57470;50.034;15.256;2024-01-15T00:20:02;97702.06;;;1.08;85.24
70103;BME280;57470;50.034;15.256;2024-01-15T00:22:28;97689.56;;;1.13;85.63
70103;BME280;57470;50.034;15.256;2024-01-15T00:24:54;97687.88;;;1.12;85.45
70103;BME280;57470;50.034;15.256;2024-01-15T00:27:19;97682.09;;;1.07;86.00
70103;BME280;57470;50.034;15.256;2024-01-15T00:29:45;97672.25;;;1.10;86.08
70103;BME280;57470;50.034;15.256;2024-01-15T00:32:10;97667.72;;;0.84;86.09
70103;BME280;57470;50.034;15.256;2024-01-15T00:34:36;97674.13;;;1.08;85.92
70103;BME280;57470;50.034;15.256;2024-01-15T00:37:01;97671.56;;;0.93;86.80
70103;BME280;57470;50.034;15.256;2024-01-15T00:39:26;97667.31;;;1.06;86.77
70103;BME280;57470;50.034;15.256;2024-01-15T00:41:52;97662.41;;;1.00;86.32
70103;BME280;57470;50.034;15.256;2024-01-15T00:44:17;97658.47;;;0.93;86.12
70103;BME280;57470;50.034;15.256;2024-01-15T00:46:46;97645.94;;;0.54;87.00
70103;BME280;57470;50.034;15.256;2024-01-15T00:49:14;97652.00;;;0.84;86.61
70103;BME280;57470;50.034;15.256;2024-01-15T00:51:40;97630.00;;;0.72;86.07
70103;BME280;57470;50.034;15.256;2024-01-15T00:54:06;97619.78;;;0.54;87.05
70103;BME280;57470;50.034;15.256;2024-01-15T00:56:31;97619.88;;;0.52;86.83
70103;BME280;57470;50.034;15.256;2024-01-15T00:58:57;97611.84;;;0.55;86.84
70103;BME280;57470;50.034;15.256;2024-01-15T01:01:22;97619.84;;;0.68;86.42
70103;BME280;57470;50.034;15.256;2024-01-15T01:03:47;97631.91;;;0.85;85.98
70103;BME280;57470;50.034;15.256;2024-01-15T01:06:13;97641.69;;;0.97;85.67
70103;BME280;57470;50.034;15.256;2024-01-15T01:08:39;97633.63;;;0.86;85.74
70103;BME280;57470;50.034;15.256;2024-01-15T01:11:04;97636.53;;;0.95;85.65
70103;BME280;57470;50.034;15.256;2024-01-15T01:13:31;97626.22;;;0.78;85.63
70103;BME280;57470;50.034;15.256;2024-01-15T01:15:56;97632.53;;;0.74;85.74
70103;BME280;57470;50.034;15.256;2024-01-15T01:18:22;97651.56;;;0.92;85.71
70103;BME280;57470;50.034;15.256;2024-01-15T01:20:47;97645.41;;;0.93;84.83
70103;BME280;57470;50.034;15.256;2024-01-15T01:23:13;97631.38;;;0.80;84.73
70103;BME280;57470;50.034;15.256;2024-01-15T01:25:38;97627.66;;;0.98;84.36
70103;BME280;57470;50.034;15.256;2024-01-15T01:28:03;97633.38;;;1.04;84.23
70103;BME280;57470;50.034;15.256;2024-01-15T01:30:29;97631.31;;;1.09;84.49
70103;BME280;57470;50.034;15.256;2024-01-15T01:32:54;97644.72;;;1.33;83.92
70103;BME280;57470;50.034;15.256;2024-01-15T01:35:19;97618.41;;;1.21;83.26
70103;BME280;57470;50.034;15.256;2024-01-15T01:37:45;97631.69;;;1.18;83.48
70103;BME280;57470;50.034;15.256;2024-01-15T01:40:10;97636.91;;;1.18;84.41
70103;BME280;57470;50.034;15.256;2024-01-15T01:42:36;97637.41;;;1.24;84.23
70103;BME280;57470;50.034;15.256;2024-01-15T01:45:01;97642.09;;;1.33;83.00
70103;BME280;57470;50.034;15.256;2024-01-15T01:47:27;97631.13;;;1.55;82.90
70103;BME280;57470;50.034;15.256;2024-01-15T01:49:53;97641.16;;;1.48;83.00
70103;BME280;57470;50.034;15.256;2024-01-15T01:52:19;97616.09;;;1.30;83.55
70103;BME280;57470;50.034;15.256;2024-01-15T01:54:44;97637.03;;;1.30;83.44
70103;BME280;57470;50.034;15.256;2024-01-15T01:57:10;97624.59;;;1.20;83.17
70103;BME280;57470;50.034;15.256;2024-01-15T01:59:37;97612.63;;;1.16;83.51
70103;BME280;57470;50.034;15.256;2024-01-15T02:02:04;97627.84;;;1.37;83.55
70103;BME280;57470;50.034;15.256;2024-01-15T02:04:31;97609.34;;;1.40;83.03
70103;BME280;57470;50.034;15.256;2024-01-15T02:06:59;97603.81;;;1.17;83.75
70103;BME280;57470;50.034;15.256;2024-01-15T02:09:25;97603.44;;;1.08;83.76
70103;BME280;57470;50.034;15.256;2024-01-15T02:11:50;97601.88;;;1.06;84.23
70103;BME280;57470;50.034;15.256;2024-01-15T02:14:16;97597.34;;;1.08;84.11
70103;BME280;57470;50.034;15.256;2024-01-15T02:16:42;97598.78;;;1.13;83.99
70103;BME280;57470;50.034;15.256;2024-01-15T02:19:07;97577.25;;;0.80;84.00
70103;BME280;57470;50.034;15.256;2024-01-15T02:21:32;97579.66;;;0.83;83.88
70103;BME280;57470;50.034;15.256;2024-01-15T02:23:59;97582.97;;;1.01;84.63
70103;BME280;57470;50.034;15.256;2024-01-15T02:26:26;97569.59;;;0.91;84.01
70103;BME280;57470;50.034;15.256;2024-01-15T02:28:54;97573.59;;;0.83;83.80
70103;BME280;57470;50.034;15.256;2024-01-15T02:31:20;97572.50;;;0.87;84.03
70103;BME280;57470;50.034;15.256;2024-01-15T02:33:47;97554.84;;;1.04;83.47
70103;BME280;57470;50.034;15.256;2024-01-15T02:36:15;97558.47;;;1.02;83.86
70103;BME280;57470;50.034;15.256;2024-01-15T02:38:42;97552.66;;;0.83;84.04
70103;BME280;57470;50.034;15.256;2024-01-15T02:41:09;97545.53;;;0.56;84.08
70103;BME280;57470;50.034;15.256;2024-01-15T02:43:36;97554.53;;;0.81;83.93
70103;BME280;57470;50.034;15.256;2024-01-15T02:46:03;97548.94;;;0.87;84.34
70103;BME280;57470;50.034;15.256;2024-01-15T02:48:30;97548.34;;;0.67;84.29
70103;BME280;57470;50.034;15.256;2024-01-15T02:50:57;97549.19;;;0.68;84.40
70103;BME280;57470;50.034;15.256;2024-01-15T02:53:24;97540.13;;;0.73;84.58
70103;BME280;57470;50.034;15.256;2024-01-15T02:55:50;97529.75;;;0.72;84.66
70103;BME280;57470;50.034;15.256;2024-01-15T02:58:18;97539.66;;;0.67;84.90
70103;BME280;57470;50.034;15.256;2024-01-15T03:00:45;97534.97;;;0.72;84.77
70103;BME280;57470;50.034;15.256;2024-01-15T03:03:13;97522.75;;;0.72;84.94
70103;BME280;57470;50.034;15.256;2024-01-15T03:05:40;97522.91;;;0.55;85.28
70103;BME280;57470;50.034;15.256;2024-01-15T03:08:06;97528.44;;;0.65;85.46
70103;BME280;57470;50.034;15.256;2024-01-15T03:10:33;97522.75;;;0.58;85.80
70103;BME280;57470;50.034;15.256;2024-01-15T03:13:00;97527.59;;;0.50;86.17
70103;BME280;57470;50.034;15.256;2024-01-15T03:15:26;97509.06;;;0.25;86.53
70103;BME280;57470;50.034;15.256;2024-01-15T03:17:54;97530.59;;;0.44;85.54
70103;BME280;57470;50.034;15.256;2024-01-15T03:20:21;97533.09;;;0.46;85.70
70103;BME280;57470;50.034;15.256;2024-01-15T03:22:47;97525.53;;;0.41;85.12
70103;BME280;57470;50.034;15.256;2024-01-15T03:25:12;97523.22;;;0.51;85.00
70103;BME280;57470;50.034;15.256;2024-01-15T03:27:37;97523.97;;;0.53;84.75
70103;BME280;57470;50.034;15.256;2024-01-15T03:30:03;97536.50;;;0.62;84.58
70103;BME280;57470;50.034;15.256;2024-01-15T03:32:29;97529.91;;;0.55;84.48
70103;BME280;57470;50.034;15.256;2024-01-15T03:34:54;97512.53;;;0.40;84.14
70103;BME280;57470;50.034;15.256;2024-01-15T03:37:19;97528.16;;;0.55;83.86
70103;BME280;57470;50.034;15.256;2024-01-15T03:39:45;97518.44;;;0.57;83.56
70103;BME280;57470;50.034;15.256;2024-01-15T03:42:11;97527.47;;;0.37;83.92
70103;BME280;57470;50.034;15.256;2024-01-15T03:44:36;97524.84;;;0.37;84.29
70103;BME280;57470;50.034;15.256;2024-01-15T03:47:01;97524.97;;;0.50;83.79
70103;BME280;57470;50.034;15.256;2024-01-15T03:49:27;97511.97;;;0.34;83.92
70103;BME280;57470;50.034;15.256;2024-01-15T03:51:52;97529.03;;;0.70;83.70
70103;BME280;57470;50.034;15.256;2024-01-15T03:54:18;97532.25;;;0.45;83.45
70103;BME280;57470;50.034;15.256;2024-01-15T03:56:43;97523.28;;;0.49;83.09
70103;BME280;57470;50.034;15.256;2024-01-15T03:59:08;97535.94;;;0.85;82.81
70103;BME280;57470;50.034;15.256;2024-01-15T04:01:34;97514.13;;;0.56;82.45
70103;BME280;57470;50.034;15.256;2024-01-15T04:03:59;97533.97;;;0.60;83.34
70103;BME280;57470;50.034;15.256;2024-01-15T04:06:24;97541.06;;;0.58;82.61
70103;BME280;57470;50.034;15.256;2024-01-15T04:08:50;97558.69;;;0.55;83.22
70103;BME280;57470;50.034;15.256;2024-01-15T04:11:15;97542.34;;;0.51;82.50
70103;BME280;57470;50.034;15.256;2024-01-15T04:13:41;97547.38;;;0.54;82.57
70103;BME280;57470;50.034;15.256;2024-01-15T04:16:06;97558.56;;;0.86;81.92
70103;BME280;57470;50.034;15.256;2024-01-15T04:18:31;97558.44;;;0.59;82.18
70103;BME280;57470;50.034;15.256;2024-01-15T04:20:57;97560.72;;;0.80;81.99
70103;BME280;57470;50.034;15.256;2024-01-15T04:23:22;97537.59;;;0.44;82.70
70103;BME280;57470;50.034;15.256;2024-01-15T04:25:48;97552.56;;;0.70;82.40
70103;BME280;57470;50.034;15.256;2024-01-15T04:28:13;97550.97;;;0.67;82.21
70103;BME280;57470;50.034;15.256;2024-01-15T04:30:38;97548.19;;;0.85;82.07
70103;BME280;57470;50.034;15.256;2024-01-15T04:33:04;97545.19;;;0.62;81.61
70103;BME280;57470;50.034;15.256;2024-01-15T04:35:30;97556.50;;;0.77;81.29
70103;BME280;57470;50.034;15.256;2024-01-15T04:37:56;97541.97;;;0.57;81.48
70103;BME280;57470;50.034;15.256;2024-01-15T04:40:21;97552.56;;;0.70;81.36
70103;BME280;57470;50.034;15.256;2024-01-15T04:42:47;97562.19;;;0.69;81.85
70103;BME280;57470;50.034;15.256;2024-01-15T04:45:12;97539.44;;;0.56;81.81
70103;BME280;57470;50.034;15.256;2024-01-15T04:47:38;97543.03;;;0.69;81.91
70103;BME280;57470;50.034;15.256;2024-01-15T04:50:05;97532.28;;;0.59;82.10
70103;BME280;57470;50.034;15.256;2024-01-15T04:52:31;97527.81;;;0.61;81.91
70103;BME280;57470;50.034;15.256;2024-01-15T04:54:56;97533.47;;;0.54;81.93
70103;BME280;57470;50.034;15.256;2024-01-15T04:57:21;97510.00;;;0.38;82.95
70103;BME280;57470;50.034;15.256;2024-01-15T04:59:47;97518.91;;;0.50;82.61
70103;BME280;57470;50.034;15.256;2024-01-15T05:02:12;97518.78;;;0.37;83.00
70103;BME280;57470;50.034;15.256;2024-01-15T05:04:37;97522.28;;;0.52;83.12
70103;BME280;57470;50.034;15.256;2024-01-15T05:07:03;97517.75;;;0.40;82.95
70103;BME280;57470;50.034;15.256;2024-01-15T05:09:28;97521.91;;;0.58;82.47
70103;BME280;57470;50.034;15.256;2024-01-15T05:11:54;97520.00;;;0.31;83.06
70103;BME280;57470;50.034;15.256;2024-01-15T05:14:19;97511.47;;;0.28;82.91
70103;BME280;57470;50.034;15.256;2024-01-15T05:16:48;97516.91;;;0.39;83.12
70103;BME280;57470;50.034;15.256;2024-01-15T05:19:14;97505.16;;;0.32;82.81
70103;BME280;57470;50.034;15.256;2024-01-15T05:21:40;97525.06;;;0.34;83.06
70103;BME280;57470;50.034;15.256;2024-01-15T05:24:05;97531.84;;;0.37;83.40
70103;BME280;57470;50.034;15.256;2024-01-15T05:26:31;97528.38;;;0.36;83.23
70103;BME280;57470;50.034;15.256;2024-01-15T05:28:56;97535.38;;;0.36;83.48
70103;BME280;57470;50.034;15.256;2024-01-15T05:31:22;97535.75;;;0.30;83.18
70103;BME280;57470;50.034;15.256;2024-01-15T05:33:48;97523.41;;;0.18;83.56
70103;BME280;57470;50.034;15.256;2024-01-15T05:36:13;97537.97;;;0.22;83.40
70103;BME280;57470;50.034;15.256;2024-01-15T05:38:39;97528.97;;;0.12;83.83
70103;BME280;57470;50.034;15.256;2024-01-15T05:41:05;97532.34;;;0.14;83.83
70103;BME280;57470;50.034;15.256;2024-01-15T05:43:31;97556.13;;;0.25;83.52
70103;BME280;57470;50.034;15.256;2024-01-15T05:45:56;97539.72;;;0.07;83.88
70103;BME280;57470;50.034;15.256;2024-01-15T05:48:22;97529.72;;;-0.01;84.22
70103;BME280;57470;50.034;15.256;2024-01-15T05:50:47;97545.88;;;0.06;84.16
70103;BME280;57470;50.034;15.256;2024-01-15T05:53:12;97543.50;;;0.02;84.18
70103;BME280;57470;50.034;15.256;2024-01-15T05:55:38;97550.25;;;0.06;84.52
70103;BME280;57470;50.034;15.256;2024-01-15T05:58:04;97555.41;;;0.07;84.32
70103;BME280;57470;50.034;15.256;2024-01-15T06:00:29;97536.69;;;-0.17;84.37
70103;BME280;57470;50.034;15.256;2024-01-15T06:02:54;97568.31;;;-0.06;84.33
70103;BME280;57470;50.034;15.256;2024-01-15T06:05:20;97561.81;;;-0.14;84.79
70103;BME280;57470;50.034;15.256;2024-01-15T06:07:45;97574.97;;;-0.16;84.35
70103;BME280;57470;50.034;15.256;2024-01-15T06:10:11;97569.09;;;-0.19;84.41
70103;BME280;57470;50.034;15.256;2024-01-15T06:12:36;97585.81;;;-0.08;84.35
70103;BME280;57470;50.034;15.256;2024-01-15T06:15:01;97581.28;;;-0.04;84.18
70103;BME280;57470;50.034;15.256;2024-01-15T06:17:27;97584.47;;;0.01;84.02
70103;BME280;57470;50.034;15.256;2024-01-15T06:19:53;97584.91;;;-0.07;84.52
70103;BME280;57470;50.034;15.256;2024-01-15T06:22:18;97591.16;;;-0.09;84.35
70103;BME280;57470;50.034;15.256;2024-01-15T06:24:43;97593.28;;;0.00;84.31
70103;BME280;57470;50.034;15.256;2024-01-15T06:27:09;97593.75;;;0.07;84.69
70103;BME280;57470;50.034;15.256;2024-01-15T06:29:37;97592.16;;;0.04;84.49
70103;BME280;57470;50.034;15.256;2024-01-15T06:32:03;97583.34;;;-0.09;84.03
70103;BME280;57470;50.034;15.256;2024-01-15T06:34:29;97593.66;;;-0.08;84.09
70103;BME280;57470;50.034;15.256;2024-01-15T06:36:54;97588.84;;;0.00;83.83
70103;BME280;57470;50.034;15.256;2024-01-15T06:39:20;97583.34;;;-0.09;83.65
70103;BME280;57470;50.034;15.256;2024-01-15T06:41:45;97586.53;;;-0.20;84.04
70103;BME280;57470;50.034;15.256;2024-01-15T06:44:11;97585.50;;;-0.17;84.53
70103;BME280;57470;50.034;15.256;2024-01-15T06:46:36;97581.38;;;-0.21;84.29
70103;BME280;57470;50.034;15.256;2024-01-15T06:49:02;97598.56;;;-0.17;84.70
70103;BME280;57470;50.034;15.256;2024-01-15T06:51:29;97590.72;;;-0.17;84.09
70103;BME280;57470;50.034;15.256;2024-01-15T06:53:54;97598.06;;;-0.24;83.55
70103;BME280;57470;50.034;15.256;2024-01-15T06:56:19;97627.03;;;0.03;83.66
70103;BME280;57470;50.034;15.256;2024-01-15T06:58:45;97615.84;;;-0.15;83.59
70103;BME280;57470;50.034;15.256;2024-01-15T07:01:10;97622.41;;;-0.08;83.54
70103;BME280;57470;50.034;15.256;2024-01-15T07:03:35;97642.50;;;0.08;83.63
70103;BME280;57470;50.034;15.256;2024-01-15T07:06:01;97637.94;;;-0.05;83.64
70103;BME280;57470;50.034;15.256;2024-01-15T07:08:27;97633.63;;;-0.06;83.36
70103;BME280;57470;50.034;15.256;2024-01-15T07:10:52;97636.75;;;-0.15;83.50
70103;BME280;57470;50.034;15.256;2024-01-15T07:13:17;97634.22;;;-0.16;83.56
70103;BME280;57470;50.034;15.256;2024-01-15T07:15:43;97623.91;;;-0.35;83.71
70103;BME280;57470;50.034;15.256;2024-01-15T07:18:08;97637.44;;;-0.27;83.57
70103;BME280;57470;50.034;15.256;2024-01-15T07:20:33;97642.31;;;-0.21;83.78
70103;BME280;57470;50.034;15.256;2024-01-15T07:22:59;97636.13;;;-0.35;84.26
70103;BME280;57470;50.034;15.256;2024-01-15T07:25:24;97645.44;;;-0.30;83.78
70103;BME280;57470;50.034;15.256;2024-01-15T07:27:51;97637.09;;;-0.36;83.91
70103;BME280;57470;50.034;15.256;2024-01-15T07:30:17;97644.16;;;-0.39;84.10
70103;BME280;57470;50.034;15.256;2024-01-15T07:32:42;97647.78;;;-0.41;83.84
70103;BME280;57470;50.034;15.256;2024-01-15T07:35:08;97642.38;;;-0.38;84.28
70103;BME280;57470;50.034;15.256;2024-01-15T07:37:33;97643.16;;;-0.36;84.01
70103;BME280;57470;50.034;15.256;2024-01-15T07:39:59;97653.75;;;-0.55;84.09
70103;BME280;57470;50.034;15.256;2024-01-15T07:42:25;97637.03;;;-0.52;84.07
70103;BME280;57470;50.034;15.256;2024-01-15T07:44:50;97657.44;;;-0.43;83.78
70103;BME280;57470;50.034;15.256;2024-01-15T07:47:16;97658.06;;;-0.38;83.69
70103;BME280;57470;50.034;15.256;2024-01-15T07:49:42;97671.69;;;-0.33;83.41
70103;BME280;57470;50.034;15.256;2024-01-15T07:52:08;97660.75;;;-0.24;83.37
70103;BME280;57470;50.034;15.256;2024-01-15T07:54:33;97664.81;;;-0.18;83.17
70103;BME280;57470;50.034;15.256;2024-01-15T07:57:00;97664.91;;;-0.20;83.27
70103;BME280;57470;50.034;15.256;2024-01-15T07:59:26;97668.09;;;-0.15;82.93
70103;BME280;57470;50.034;15.256;2024-01-15T08:01:52;97662.38;;;-0.06;82.45
70103;BME280;57470;50.034;15.256;2024-01-15T08:04:18;97656.38;;;0.24;82.46
70103;BME280;57470;50.034;15.256;2024-01-15T08:06:44;97674.06;;;0.19;82.66
70103;BME280;57470;50.034;15.256;2024-01-15T08:09:10;97645.50;;;0.16;82.83
70103;BME280;57470;50.034;15.256;2024-01-15T08:11:36;97661.72;;;0.07;83.09
70103;BME280;57470;50.034;15.256;2024-01-15T08:14:04;97653.25;;;0.02;82.90
70103;BME280;57470;50.034;15.256;2024-01-15T08:16:29;97652.19;;;-0.10;83.54
70103;BME280;57470;50.034;15.256;2024-01-15T08:18:55;97649.91;;;-0.01;84.36
70103;BME280;57470;50.034;15.256;2024-01-15T08:21:20;97655.13;;;-0.01;83.45
70103;BME280;57470;50.034;15.256;2024-01-15T08:23:45;97654.13;;;0.18;83.36
70103;BME280;57470;50.034;15.256;2024-01-15T08:26:11;97647.94;;;0.19;83.04
70103;BME280;57470;50.034;15.256;2024-01-15T08:28:36;97654.50;;;0.42;82.80
70103;BME280;57470;50.034;15.256;2024-01-15T08:31:02;97649.50;;;0.37;82.46
70103;BME280;57470;50.034;15.256;2024-01-15T08:33:28;97654.84;;;0.65;81.88
70103;BME280;57470;50.034;15.256;2024-01-15T08:35:54;97653.88;;;0.52;81.53
70103;BME280;57470;50.034;15.256;2024-01-15T08:38:19;97639.91;;;0.67;80.44
70103;BME280;57470;50.034;15.256;2024-01-15T08:40:45;97647.84;;;0.96;80.54
70103;BME280;57470;50.034;15.256;2024-01-15T08:43:10;97648.78;;;1.94;77.10
70103;BME280;57470;50.034;15.256;2024-01-15T08:45:36;97648.66;;;3.28;73.59
70103;BME280;57470;50.034;15.256;2024-01-15T08:48:01;97640.66;;;4.65;69.05
70103;BME280;57470;50.034;15.256;2024-01-15T08:50:27;97625.47;;;2.95;71.49
70103;BME280;57470;50.034;15.256;2024-01-15T08:52:53;97645.03;;;2.25;74.03
70103;BME280;57470;50.034;15.256;2024-01-15T08:55:19;97637.94;;;1.43;75.65
70103;BME280;57470;50.034;15.256;2024-01-15T08:57:48;97638.97;;;1.12;76.86
70103;BME280;57470;50.034;15.256;2024-01-15T09:00:13;97630.44;;;0.95;77.67
70103;BME280;57470;50.034;15.256;2024-01-15T09:02:39;97654.81;;;1.25;77.91
70103;BME280;57470;50.034;15.256;2024-01-15T09:05:05;97646.16;;;1.09;77.81
70103;BME280;57470;50.034;15.256;2024-01-15T09:07:30;97643.19;;;1.15;78.23
70103;BME280;57470;50.034;15.256;2024-01-15T09:09:55;97649.47;;;1.27;77.69
70103;BME280;57470;50.034;15.256;2024-01-15T09:12:21;97648.59;;;1.26;78.60
70103;BME280;57470;50.034;15.256;2024-01-15T09:14:47;97655.25;;;1.18;77.99
70103;BME280;57470;50.034;15.256;2024-01-15T09:17:13;97648.59;;;1.26;78.22
70103;BME280;57470;50.034;15.256;2024-01-15T09:19:38;97636.91;;;0.89;78.59
70103;BME280;57470;50.034;15.256;2024-01-15T09:22:07;97648.69;;;1.10;78.83
70103;BME280;57470;50.034;15.256;2024-01-15T09:24:32;97634.84;;;1.08;79.24
70103;BME280;57470;50.034;15.256;2024-01-15T09:26:58;97643.16;;;1.01;79.02
70103;BME280;57470;50.034;15.256;2024-01-15T09:29:23;97643.75;;;1.06;79.00
70103;BME280;57470;50.034;15.256;2024-01-15T09:31:51;97649.38;;;1.14;78.84
70103;BME280;57470;50.034;15.256;2024-01-15T09:34:17;97647.09;;;1.08;79.06
70103;BME280;57470;50.034;15.256;2024-01-15T09:36:43;97650.38;;;1.26;79.10
70103;BME280;57470;50.034;15.256;2024-01-15T09:39:09;97639.63;;;1.02;78.72
70103;BME280;57470;50.034;15.256;2024-01-15T09:41:36;97651.91;;;1.30;78.97
70103;BME280;57470;50.034;15.256;2024-01-15T09:44:03;97652.19;;;1.25;78.46
70103;BME280;57470;50.034;15.256;2024-01-15T09:46:28;97656.00;;;1.20;78.21
70103;BME280;57470;50.034;15.256;2024-01-15T09:48:54;97652.09;;;0.83;79.12
70103;BME280;57470;50.034;15.256;2024-01-15T09:51:20;97641.50;;;1.14;78.72
70103;BME280;57470;50.034;15.256;2024-01-15T09:53:46;97651.16;;;1.42;78.97
70103;BME280;57470;50.034;15.256;2024-01-15T09:56:14;97651.34;;;1.39;78.90
70103;BME280;57470;50.034;15.256;2024-01-15T09:58:39;97642.94;;;1.34;78.65
70103;BME280;57470;50.034;15.256;2024-01-15T10:01:08;97644.88;;;1.44;77.69
70103;BME280;57470;50.034;15.256;2024-01-15T10:03:33;97642.53;;;1.26;78.14
70103;BME280;57470;50.034;15.256;2024-01-15T10:05:59;97638.63;;;1.33;78.68
70103;BME280;57470;50.034;15.256;2024-01-15T10:08:25;97640.41;;;1.32;78.41
70103;BME280;57470;50.034;15.256;2024-01-15T10:10:51;97615.16;;;1.31;77.93
70103;BME280;57470;50.034;15.256;2024-01-15T10:13:17;97633.94;;;1.38;77.77
70103;BME280;57470;50.034;15.256;2024-01-15T10:15:45;97623.56;;;1.36;77.89
70103;BME280;57470;50.034;15.256;2024-01-15T10:18:12;97620.25;;;1.75;77.84
70103;BME280;57470;50.034;15.256;2024-01-15T10:20:37;97607.66;;;1.39;77.19
70103;BME280;57470;50.034;15.256;2024-01-15T10:23:03;97608.03;;;1.47;76.89
70103;BME280;57470;50.034;15.256;2024-01-15T10:25:29;97615.97;;;1.46;77.36
70103;BME280;57470;50.034;15.256;2024-01-15T10:28:03;97608.13;;;1.46;77.22
70103;BME280;57470;50.034;15.256;2024-01-15T10:30:30;97612.53;;;1.31;77.81
70103;BME280;57470;50.034;15.256;2024-01-15T10:33:03;97602.25;;;1.14;76.69
70103;BME280;57470;50.034;15.256;2024-01-15T10:35:33;97608.47;;;1.68;77.33
70103;BME280;57470;50.034;15.256;2024-01-15T10:38:00;97601.25;;;1.86;76.95
70103;BME280;57470;50.034;15.256;2024-01-15T10:40:25;97614.41;;;1.99;77.19
70103;BME280;57470;50.034;15.256;2024-01-15T10:42:51;97602.66;;;1.63;77.06
70103;BME280;57470;50.034;15.256;2024-01-15T10:45:17;97592.13;;;1.50;76.73
70103;BME280;57470;50.034;15.256;2024-01-15T10:47:42;97599.69;;;1.27;77.16
70103;BME280;57470;50.034;15.256;2024-01-15T10:50:09;97592.84;;;1.67;76.84
70103;BME280;57470;50.034;15.256;2024-01-15T10:52:39;97600.53;;;1.70;77.12
70103;BME280;57470;50.034;15.256;2024-01-15T10:55:07;97590.66;;;1.87;77.18
70103;BME280;57470;50.034;15.256;2024-01-15T10:57:34;97586.47;;;1.71;76.84
70103;BME280;57470;50.034;15.256;2024-01-15T11:00:00;97589.81;;;1.87;76.33
70103;BME280;57470;50.034;15.256;2024-01-15T11:02:29;97590.22;;;1.67;76.78
70103;BME280;57470;50.034;15.256;2024-01-15T11:04:55;97585.47;;;1.59;76.55
70103;BME280;57470;50.034;15.256;2024-01-15T11:07:22;97594.84;;;1.49;76.24
70103;BME280;57470;50.034;15.256;2024-01-15T11:09:50;97589.00;;;1.72;76.78
70103;BME280;57470;50.034;15.256;2024-01-15T11:12:16;97591.63;;;1.72;77.41
70103;BME280;57470;50.034;15.256;2024-01-15T11:14:46;97591.75;;;1.57;77.09
70103;BME280;57470;50.034;15.256;2024-01-15T11:17:13;97586.94;;;1.63;77.72
70103;BME280;57470;50.034;15.256;2024-01-15T11:22:09;97568.91;;;1.59;77.03
70103;BME280;57470;50.034;15.256;2024-01-15T11:24:38;97590.88;;;1.97;77.17
70103;BME280;57470;50.034;15.256;2024-01-15T11:27:05;97570.63;;;1.31;77.87
70103;BME280;57470;50.034;15.256;2024-01-15T11:29:36;97565.72;;;1.54;77.29
70103;BME280;57470;50.034;15.256;2024-01-15T11:32:09;97579.66;;;1.68;77.18
70103;BME280;57470;50.034;15.256;2024-01-15T11:37:15;97577.13;;;1.67;76.70
70103;BME280;57470;50.034;15.256;2024-01-15T11:39:43;97567.56;;;1.25;77.11
70103;BME280;57470;50.034;15.256;2024-01-15T11:42:10;97588.38;;;1.55;76.92
70103;BME280;57470;50.034;15.256;2024-01-15T11:44:40;97579.50;;;1.43;77.21
70103;BME280;57470;50.034;15.256;2024-01-15T11:47:09;97581.53;;;1.66;77.52
70103;BME280;57470;50.034;15.256;2024-01-15T11:49:59;97581.81;;;1.62;77.61
70103;BME280;57470;50.034;15.256;2024-01-15T11:52:37;97570.19;;;1.66;77.37
70103;BME280;57470;50.034;15.256;2024-01-15T11:57:51;97564.31;;;1.62;77.01
70103;BME280;57470;50.034;15.256;2024-01-15T12:00:18;97570.03;;;1.69;77.03
70103;BME280;57470;50.034;15.256;2024-01-15T12:02:45;97553.41;;;1.27;78.00
70103;BME280;57470;50.034;15.256;2024-01-15T12:05:14;97551.97;;;1.64;77.52
70103;BME280;57470;50.034;15.256;2024-01-15T12:07:40;97553.13;;;1.87;77.24
70103;BME280;57470;50.034;15.256;2024-01-15T12:10:13;97556.75;;;1.58;77.57
70103;BME280;57470;50.034;15.256;2024-01-15T12:12:59;97555.97;;;1.70;77.51
70103;BME280;57470;50.034;15.256;2024-01-15T12:15:27;97545.16;;;1.47;77.45
70103;BME280;57470;50.034;15.256;2024-01-15T12:17:54;97552.53;;;1.55;77.16
70103;BME280;57470;50.034;15.256;2024-01-15T12:20:21;97552.47;;;1.83;76.73
70103;BME280;57470;50.034;15.256;2024-01-15T12:22:46;97550.25;;;1.77;76.69
70103;BME280;57470;50.034;15.256;2024-01-15T12:25:12;97544.28;;;1.06;77.43
70103;BME280;57470;50.034;15.256;2024-01-15T12:27:37;97534.72;;;1.33;77.41
70103;BME280;57470;50.034;15.256;2024-01-15T12:30:03;97552.47;;;1.42;78.40
70103;BME280;57470;50.034;15.256;2024-01-15T12:32:29;97552.75;;;1.38;77.65
70103;BME280;57470;50.034;15.256;2024-01-15T12:34:54;97547.50;;;1.38;78.80
70103;BME280;57470;50.034;15.256;2024-01-15T12:37:20;97544.59;;;1.57;77.97
70103;BME280;57470;50.034;15.256;2024-01-15T12:39:46;97549.09;;;1.40;77.73
70103;BME280;57470;50.034;15.256;2024-01-15T12:42:14;97552.25;;;1.60;77.69
70103;BME280;57470;50.034;15.256;2024-01-15T12:44:40;97544.00;;;1.25;78.21
70103;BME280;57470;50.034;15.256;2024-01-15T12:47:06;97543.00;;;1.54;77.30
70103;BME280;57470;50.034;15.256;2024-01-15T12:49:32;97534.06;;;1.30;77.10
70103;BME280;57470;50.034;15.256;2024-01-15T12:51:58;97540.72;;;1.21;77.25
70103;BME280;57470;50.034;15.256;2024-01-15T12:54:25;97542.19;;;1.39;77.72
70103;BME280;57470;50.034;15.256;2024-01-15T12:56:51;97543.03;;;1.40;77.66
70103;BME280;57470;50.034;15.256;2024-01-15T12:59:17;97546.84;;;1.48;77.33